createdAt,value
2023-10-20T00:00:10.176Z,98147.28
2023-10-20T00:02:59.079Z,98146.03
2023-10-20T00:05:27.351Z,98152.59
2023-10-20T00:07:54.784Z,98160.47
2023-10-20T00:10:22.787Z,98158.66
2023-10-20T00:12:50.028Z,98160.47
2023-10-20T00:15:19.500Z,98148.56
2023-10-20T00:17:48.746Z,98140.13
2023-10-20T00:20:22.164Z,98127.41
2023-10-20T00:22:49.565Z,98121.81
2023-10-20T00:25:17.429Z,98122.50
2023-10-20T00:27:44.938Z,98130.16
2023-10-20T00:30:13.042Z,98133.88
2023-10-20T00:32:41.177Z,98137.03
2023-10-20T00:35:09.897Z,98129.56
2023-10-20T00:37:38.778Z,98128.09
2023-10-20T00:40:07.393Z,98134.72
2023-10-20T00:42:34.903Z,98133.25
2023-10-20T00:45:02.816Z,98148.66
2023-10-20T00:47:31.251Z,98169.88
2023-10-20T00:50:00.473Z,98177.25
2023-10-20T00:52:29.851Z,98173.66
2023-10-20T00:55:00.754Z,98154.41
2023-10-20T00:57:28.328Z,98149.03
2023-10-20T00:59:56.238Z,98140.56
2023-10-20T01:02:23.757Z,98124.91
2023-10-20T01:04:51.619Z,98127.06
2023-10-20T01:07:19.008Z,98130.41
2023-10-20T01:09:46.892Z,98125.94
2023-10-20T01:12:15.912Z,98137.00
2023-10-20T01:14:43.938Z,98125.75
2023-10-20T01:17:11.489Z,98123.72
2023-10-20T01:19:39.314Z,98122.81
2023-10-20T01:22:06.853Z,98111.84
2023-10-20T01:24:36.309Z,98102.97
2023-10-20T01:27:03.868Z,98103.81
2023-10-20T01:29:32.412Z,98102.91
2023-10-20T01:31:59.846Z,98102.34
2023-10-20T01:34:27.607Z,98095.41
2023-10-20T01:36:54.986Z,98098.38
2023-10-20T01:39:22.660Z,98101.66
2023-10-20T01:41:54.756Z,98104.28
2023-10-20T01:44:22.246Z,98089.19
2023-10-20T01:46:49.885Z,98092.47
2023-10-20T01:49:18.690Z,98092.34
2023-10-20T01:51:46.091Z,98092.91
2023-10-20T01:54:13.882Z,98085.81
2023-10-20T01:56:41.269Z,98079.63
2023-10-20T01:59:10.617Z,98079.16
2023-10-20T02:01:37.949Z,98076.66
2023-10-20T02:04:06.062Z,98075.44
2023-10-20T02:06:33.481Z,98071.75
2023-10-20T02:09:01.297Z,98053.50
2023-10-20T02:11:28.758Z,98049.16
2023-10-20T02:13:56.434Z,98055.53
2023-10-20T02:16:25.192Z,98055.91
2023-10-20T02:18:57.711Z,98055.63
2023-10-20T02:21:25.093Z,98059.34
2023-10-20T02:23:52.963Z,98061.19
2023-10-20T02:26:20.367Z,98062.41
2023-10-20T02:28:48.387Z,98073.03
2023-10-20T02:31:17.170Z,98077.56
2023-10-20T02:33:46.853Z,98084.78
2023-10-20T02:36:17.142Z,98076.13
2023-10-20T02:38:45.100Z,98078.41
2023-10-20T02:41:12.652Z,98060.66
2023-10-20T02:43:40.425Z,98057.53
2023-10-20T02:46:08.389Z,98068.06
2023-10-20T02:48:36.215Z,98056.88
2023-10-20T02:51:11.144Z,98047.66
2023-10-20T02:53:38.904Z,98039.56
2023-10-20T02:56:11.560Z,98037.28
2023-10-20T02:58:39.476Z,98039.75
2023-10-20T03:01:07.551Z,98044.06
2023-10-20T03:03:35.621Z,98039.19
2023-10-20T03:06:04.515Z,98032.94
2023-10-20T03:08:39.426Z,98027.19
2023-10-20T03:11:07.619Z,98016.47
2023-10-20T03:13:35.760Z,98002.28
2023-10-20T03:16:03.230Z,97998.56
2023-10-20T03:18:31.142Z,98015.22
2023-10-20T03:21:00.470Z,98028.97
2023-10-20T03:23:28.410Z,98022.97
2023-10-20T03:25:57.599Z,98029.50
2023-10-20T03:28:25.630Z,98038.09
2023-10-20T03:30:53.100Z,98050.56
2023-10-20T03:33:20.738Z,98046.94
2023-10-20T03:35:48.157Z,98048.94
2023-10-20T03:38:16.067Z,98051.09
2023-10-20T03:40:43.638Z,98049.84
2023-10-20T03:43:13.135Z,98044.06
2023-10-20T03:45:41.103Z,98025.34
2023-10-20T03:48:09.685Z,98030.06
2023-10-20T03:50:37.707Z,98028.88
2023-10-20T03:53:05.785Z,98021.88
2023-10-20T03:55:33.300Z,98026.84
2023-10-20T03:58:01.445Z,98035.19
2023-10-20T04:00:30.433Z,98045.06
2023-10-20T04:02:58.688Z,98037.38
2023-10-20T04:05:26.170Z,98026.41
2023-10-20T04:07:54.062Z,98040.75
2023-10-20T04:10:21.762Z,98031.78
2023-10-20T04:12:50.634Z,98032.16
2023-10-20T04:15:18.117Z,98032.63
2023-10-20T04:17:48.242Z,98029.81
2023-10-20T04:20:15.752Z,98024.81
2023-10-20T04:22:44.020Z,98021.63
2023-10-20T04:25:11.433Z,98013.09
2023-10-20T04:27:39.444Z,98015.38
2023-10-20T04:30:08.093Z,98020.84
2023-10-20T04:32:35.953Z,98024.06
2023-10-20T04:35:05.390Z,98028.72
2023-10-20T04:37:33.273Z,98035.28
2023-10-20T04:40:00.761Z,98034.44
2023-10-20T04:42:28.494Z,98032.44
2023-10-20T04:44:55.910Z,98028.75
2023-10-20T04:47:23.752Z,98026.19
2023-10-20T04:49:51.252Z,98005.94
2023-10-20T04:52:23.907Z,98004.88
2023-10-20T04:54:51.196Z,98015.91
2023-10-20T04:57:19.439Z,98007.44
2023-10-20T04:59:46.926Z,98009.50
2023-10-20T05:02:14.902Z,98005.00
2023-10-20T05:04:43.904Z,98000.97
2023-10-20T05:07:11.932Z,97988.97
2023-10-20T05:09:40.768Z,97990.72
2023-10-20T05:12:08.580Z,97995.53
2023-10-20T05:14:36.361Z,97991.03
2023-10-20T05:17:04.372Z,97989.22
2023-10-20T05:19:31.835Z,97992.97
2023-10-20T05:21:59.806Z,97992.81
2023-10-20T05:24:27.186Z,97991.19
2023-10-20T05:26:56.413Z,98009.13
2023-10-20T05:29:25.014Z,97997.59
2023-10-20T05:31:57.321Z,97991.84
2023-10-20T05:34:24.875Z,97991.63
2023-10-20T05:36:52.685Z,97989.28
2023-10-20T05:39:23.175Z,97987.63
2023-10-20T05:41:50.994Z,98000.00
2023-10-20T05:44:20.026Z,97995.25
2023-10-20T05:46:47.736Z,98003.28
2023-10-20T05:49:15.040Z,97999.81
2023-10-20T05:51:42.850Z,98000.97
2023-10-20T05:54:10.192Z,97989.84
2023-10-20T05:56:38.035Z,97976.22
2023-10-20T05:59:05.562Z,97973.72
2023-10-20T06:01:34.843Z,97974.19
2023-10-20T06:04:02.491Z,97961.47
2023-10-20T06:06:31.511Z,97957.75
2023-10-20T06:08:59.030Z,97957.56
2023-10-20T06:11:26.775Z,97970.47
2023-10-20T06:13:54.286Z,97977.06
2023-10-20T06:16:22.010Z,97973.09
2023-10-20T06:18:50.808Z,97970.13
2023-10-20T06:21:18.699Z,97971.78
2023-10-20T06:23:46.248Z,97966.19
2023-10-20T06:26:14.257Z,97961.28
2023-10-20T06:28:41.806Z,97957.56
2023-10-20T06:31:09.866Z,97958.09
2023-10-20T06:33:37.377Z,97955.53
2023-10-20T06:36:06.686Z,97953.91
2023-10-20T06:38:34.057Z,97947.91
2023-10-20T06:41:01.854Z,97945.25
2023-10-20T06:43:33.263Z,97943.41
2023-10-20T06:46:01.631Z,97942.34
2023-10-20T06:48:30.334Z,97944.66
2023-10-20T06:50:58.425Z,97932.22
2023-10-20T06:53:27.621Z,97934.75
2023-10-20T06:56:12.957Z,97936.06
2023-10-20T06:58:42.399Z,97922.28
2023-10-20T07:01:10.292Z,97913.78
2023-10-20T07:03:37.855Z,97905.13
2023-10-20T07:06:06.142Z,97901.19
2023-10-20T07:08:35.159Z,97906.13
2023-10-20T07:11:03.286Z,97909.34
2023-10-20T07:13:32.135Z,97918.88
2023-10-20T07:15:59.987Z,97910.03
2023-10-20T07:18:27.811Z,97919.81
2023-10-20T07:20:57.761Z,97919.28
2023-10-20T07:23:26.646Z,97917.25
2023-10-20T07:25:56.246Z,97918.81
2023-10-20T07:28:23.596Z,97915.41
2023-10-20T07:30:51.436Z,97904.19
2023-10-20T07:33:18.947Z,97895.53
2023-10-20T07:35:47.192Z,97890.34
2023-10-20T07:38:14.635Z,97889.75
2023-10-20T07:40:42.593Z,97882.81
2023-10-20T07:43:11.787Z,97867.06
2023-10-20T07:45:40.333Z,97869.16
2023-10-20T07:48:08.369Z,97862.16
2023-10-20T07:50:36.449Z,97848.16
2023-10-20T07:53:04.078Z,97852.44
2023-10-20T07:55:31.939Z,97855.38
2023-10-20T07:57:59.404Z,97853.66
2023-10-20T08:00:33.268Z,97851.06
2023-10-20T08:03:00.732Z,97842.41
2023-10-20T08:05:28.888Z,97852.31
2023-10-20T08:07:56.848Z,97847.63
2023-10-20T08:10:24.591Z,97842.53
2023-10-20T08:12:52.057Z,97842.72
2023-10-20T08:15:19.995Z,97839.31
2023-10-20T08:17:49.067Z,97840.31
2023-10-20T08:20:17.190Z,97844.34
2023-10-20T08:22:47.255Z,97839.97
2023-10-20T08:25:15.346Z,97833.31
2023-10-20T08:27:46.150Z,97819.06
2023-10-20T08:30:14.789Z,97800.09
2023-10-20T08:32:42.362Z,97796.06
2023-10-20T08:35:11.685Z,97799.25
2023-10-20T08:37:39.273Z,97794.94
2023-10-20T08:40:08.120Z,97786.91
2023-10-20T08:42:37.871Z,97788.63
2023-10-20T08:45:09.168Z,97785.03
2023-10-20T08:47:37.026Z,97780.50
2023-10-20T08:50:06.536Z,97783.31
2023-10-20T08:52:40.136Z,97789.06
2023-10-20T08:55:08.880Z,97786.38
2023-10-20T08:57:36.292Z,97777.56
2023-10-20T09:00:05.018Z,97771.03
2023-10-20T09:02:41.280Z,97743.91
2023-10-20T09:05:11.477Z,97750.22
2023-10-20T09:07:40.387Z,97756.47
2023-10-20T09:10:08.614Z,97751.19
2023-10-20T09:12:36.282Z,97747.22
2023-10-20T09:15:04.713Z,97748.19
2023-10-20T09:17:32.184Z,97745.59
2023-10-20T09:20:05.630Z,97745.25
2023-10-20T09:22:33.152Z,97736.72
2023-10-20T09:25:07.359Z,97742.66
2023-10-20T09:27:34.723Z,97744.97
2023-10-20T09:30:04.298Z,97750.72
2023-10-20T09:32:31.794Z,97749.78
2023-10-20T09:35:01.138Z,97756.91
2023-10-20T09:37:31.021Z,97744.84
2023-10-20T09:40:06.096Z,97754.28
2023-10-20T09:42:46.412Z,97761.88
2023-10-20T09:45:17.036Z,97756.75
2023-10-20T09:47:48.259Z,97748.28
2023-10-20T09:50:16.873Z,97744.25
2023-10-20T09:52:44.388Z,97741.00
2023-10-20T09:55:14.160Z,97734.19
2023-10-20T09:57:44.090Z,97723.72
2023-10-20T10:00:13.252Z,97716.38
2023-10-20T10:02:40.958Z,97713.41
2023-10-20T10:05:10.392Z,97706.63
2023-10-20T10:07:37.896Z,97696.63
2023-10-20T10:10:08.416Z,97688.31
2023-10-20T10:12:59.502Z,97695.81
2023-10-20T10:15:37.750Z,97697.03
2023-10-20T10:18:10.307Z,97697.94
2023-10-20T10:20:43.116Z,97701.91
2023-10-20T10:23:11.647Z,97698.59
2023-10-20T10:25:41.550Z,97697.78
2023-10-20T10:28:14.956Z,97702.03
2023-10-20T10:30:44.012Z,97699.63
2023-10-20T10:33:12.836Z,97702.75
2023-10-20T10:35:41.254Z,97710.16
2023-10-20T10:38:19.245Z,97718.28
2023-10-20T10:40:48.112Z,97713.84
2023-10-20T10:43:19.072Z,97718.00
2023-10-20T10:45:54.102Z,97714.69
2023-10-20T10:48:25.456Z,97708.59
2023-10-20T10:50:53.625Z,97697.50
2023-10-20T10:53:21.240Z,97681.50
2023-10-20T10:55:49.036Z,97667.59
2023-10-20T10:58:18.191Z,97663.88
2023-10-20T11:00:47.002Z,97646.16
2023-10-20T11:03:15.484Z,97637.72
2023-10-20T11:05:44.221Z,97647.06
2023-10-20T11:08:15.986Z,97635.50
2023-10-20T11:10:46.461Z,97632.81
2023-10-20T11:13:14.529Z,97636.56
2023-10-20T11:15:44.302Z,97633.06
2023-10-20T11:18:12.268Z,97631.53
2023-10-20T11:20:41.527Z,97630.72
2023-10-20T11:23:11.183Z,97636.91
2023-10-20T11:25:39.874Z,97640.66
2023-10-20T11:28:08.062Z,97639.00
2023-10-20T11:30:37.384Z,97645.53
2023-10-20T11:33:06.754Z,97645.31
2023-10-20T11:35:34.907Z,97651.63
2023-10-20T11:38:02.470Z,97644.28
2023-10-20T11:40:30.689Z,97648.94
2023-10-20T11:43:02.312Z,97639.91
2023-10-20T11:45:30.689Z,97637.72
2023-10-20T11:47:58.262Z,97639.00
2023-10-20T11:50:31.956Z,97634.28
2023-10-20T11:53:02.660Z,97618.34
2023-10-20T11:55:32.433Z,97608.34
2023-10-20T11:58:01.483Z,97620.56
2023-10-20T12:00:30.065Z,97611.97
2023-10-20T12:02:57.780Z,97609.84
2023-10-20T12:05:27.354Z,97612.97
2023-10-20T12:07:54.866Z,97614.66
2023-10-20T12:10:25.279Z,97625.63
2023-10-20T12:12:53.860Z,97628.28
2023-10-20T12:15:25.143Z,97623.34
2023-10-20T12:18:16.734Z,97624.63
2023-10-20T12:20:45.989Z,97630.47
2023-10-20T12:23:15.958Z,97643.13
2023-10-20T12:25:43.810Z,97635.34
2023-10-20T12:28:14.536Z,97625.25
2023-10-20T12:30:42.562Z,97621.88
2023-10-20T12:33:10.298Z,97640.00
2023-10-20T12:35:38.125Z,97630.53
2023-10-20T12:38:10.951Z,97620.00
2023-10-20T12:40:38.997Z,97615.22
2023-10-20T12:43:08.380Z,97609.97
2023-10-20T12:45:37.939Z,97595.88
2023-10-20T12:48:06.055Z,97601.09
2023-10-20T12:50:34.382Z,97585.94
2023-10-20T12:53:01.881Z,97585.19
2023-10-20T12:55:35.106Z,97573.94
2023-10-20T12:58:03.780Z,97568.28
2023-10-20T13:00:31.736Z,97562.09
2023-10-20T13:02:59.254Z,97562.03
2023-10-20T13:05:27.216Z,97552.31
2023-10-20T13:07:54.755Z,97549.53
2023-10-20T13:10:22.728Z,97548.16
2023-10-20T13:12:51.615Z,97549.13
2023-10-20T13:15:19.621Z,97557.38
2023-10-20T13:17:47.165Z,97540.72
2023-10-20T13:20:15.157Z,97542.09
2023-10-20T13:22:42.637Z,97543.19
2023-10-20T13:25:13.208Z,97532.88
2023-10-20T13:27:42.462Z,97542.50
2023-10-20T13:30:12.504Z,97540.78
2023-10-20T13:32:40.018Z,97546.97
2023-10-20T13:35:08.644Z,97554.34
2023-10-20T13:37:36.344Z,97554.00
2023-10-20T13:40:05.098Z,97541.63
2023-10-20T13:42:32.613Z,97547.50
2023-10-20T13:45:00.642Z,97546.34
2023-10-20T13:47:29.564Z,97543.19
2023-10-20T13:49:57.374Z,97540.66
2023-10-20T13:52:24.919Z,97535.56
2023-10-20T13:54:52.857Z,97531.66
2023-10-20T13:57:20.257Z,97535.81
2023-10-20T13:59:48.021Z,97537.88
2023-10-20T14:02:15.463Z,97536.88
2023-10-20T14:04:44.793Z,97534.03
2023-10-20T14:07:12.161Z,97544.94
2023-10-20T14:09:40.122Z,97547.69
2023-10-20T14:12:07.783Z,97539.47
2023-10-20T14:14:35.741Z,97541.69
2023-10-20T14:17:05.085Z,97542.84
2023-10-20T14:19:33.189Z,97537.03
2023-10-20T14:22:05.901Z,97543.00
2023-10-20T14:24:33.882Z,97534.19
2023-10-20T14:27:01.371Z,97525.72
2023-10-20T14:29:29.162Z,97528.66
2023-10-20T14:31:56.731Z,97523.03
2023-10-20T14:34:24.666Z,97512.91
2023-10-20T14:36:52.032Z,97511.59
2023-10-20T14:39:21.210Z,97501.13
2023-10-20T14:41:48.718Z,97496.91
2023-10-20T14:44:16.745Z,97496.72
2023-10-20T14:46:44.178Z,97498.34
2023-10-20T14:49:11.889Z,97506.13
2023-10-20T14:51:39.449Z,97511.75
2023-10-20T14:54:07.251Z,97528.31
2023-10-20T14:56:36.271Z,97520.59
2023-10-20T14:59:04.204Z,97538.53
2023-10-20T15:01:31.844Z,97554.09
2023-10-20T15:04:07.607Z,97553.91
2023-10-20T15:06:45.206Z,97556.22
2023-10-20T15:09:13.153Z,97562.53
2023-10-20T15:11:41.995Z,97558.16
2023-10-20T15:14:09.773Z,97549.66
2023-10-20T15:16:37.190Z,97553.41
2023-10-20T15:19:05.344Z,97559.09
2023-10-20T15:21:32.804Z,97568.25
2023-10-20T15:24:00.617Z,97575.19
2023-10-20T15:26:28.206Z,97572.50
2023-10-20T15:28:57.389Z,97555.22
2023-10-20T15:31:25.032Z,97546.09
2023-10-20T15:33:53.059Z,97553.69
2023-10-20T15:36:20.521Z,97553.56
2023-10-20T15:38:50.366Z,97556.94
2023-10-20T15:41:18.059Z,97541.84
2023-10-20T15:43:46.111Z,97524.25
2023-10-20T15:46:25.007Z,97493.88
2023-10-20T15:48:53.536Z,97510.78
2023-10-20T15:51:22.161Z,97548.50
2023-10-20T15:53:50.551Z,97537.13
2023-10-20T15:56:23.227Z,97523.41
2023-10-20T15:58:54.660Z,97533.00
2023-10-20T16:01:25.927Z,97533.81
2023-10-20T16:03:54.192Z,97527.56
2023-10-20T16:06:27.646Z,97527.22
2023-10-20T16:08:59.102Z,97529.69
2023-10-20T16:11:27.272Z,97510.91
2023-10-20T16:13:55.754Z,97494.16
2023-10-20T16:16:27.719Z,97480.31
2023-10-20T16:18:58.703Z,97503.50
2023-10-20T16:21:26.547Z,97511.41
2023-10-20T16:23:55.855Z,97509.47
2023-10-20T16:26:23.545Z,97520.25
2023-10-20T16:28:52.675Z,97529.19
2023-10-20T16:31:20.222Z,97514.19
2023-10-20T16:33:52.544Z,97525.94
2023-10-20T16:36:23.498Z,97521.63
2023-10-20T16:39:00.202Z,97522.50
2023-10-20T16:41:43.312Z,97518.88
2023-10-20T16:44:25.276Z,97526.16
2023-10-20T16:46:52.872Z,97530.47
2023-10-20T16:49:36.146Z,97538.50
2023-10-20T16:52:07.495Z,97531.53
2023-10-20T16:54:39.464Z,97546.06
2023-10-20T16:57:18.583Z,97529.94
2023-10-20T16:59:50.799Z,97516.41
2023-10-20T17:02:18.219Z,97515.41
2023-10-20T17:04:47.350Z,97519.94
2023-10-20T17:07:14.831Z,97511.47
2023-10-20T17:10:00.827Z,97514.69
2023-10-20T17:12:38.334Z,97516.88
2023-10-20T17:15:17.356Z,97507.88
2023-10-20T17:17:46.959Z,97497.09
2023-10-20T17:20:24.508Z,97481.50
2023-10-20T17:22:52.712Z,97492.44
2023-10-20T17:25:24.715Z,97497.91
2023-10-20T17:27:56.370Z,97518.97
2023-10-20T17:30:27.280Z,97527.59
2023-10-20T17:32:54.802Z,97533.56
2023-10-20T17:35:34.333Z,97541.97
2023-10-20T17:38:02.165Z,97542.88
2023-10-20T17:40:29.962Z,97550.50
2023-10-20T17:42:57.627Z,97554.88
2023-10-20T17:45:25.613Z,97539.59
2023-10-20T17:47:53.774Z,97527.66
2023-10-20T17:50:23.271Z,97517.94
2023-10-20T17:52:51.006Z,97523.69
2023-10-20T17:55:18.961Z,97514.56
2023-10-20T17:57:46.850Z,97507.44
2023-10-20T18:00:16.176Z,97513.81
2023-10-20T18:02:43.845Z,97519.78
2023-10-20T18:05:11.961Z,97514.59
2023-10-20T18:07:42.965Z,97515.78
2023-10-20T18:10:11.088Z,97517.28
2023-10-20T18:12:38.702Z,97514.22
2023-10-20T18:15:08.803Z,97516.34
2023-10-20T18:17:36.311Z,97517.97
2023-10-20T18:20:04.956Z,97517.59
2023-10-20T18:22:32.398Z,97515.34
2023-10-20T18:25:01.741Z,97525.25
2023-10-20T18:27:29.192Z,97531.03
2023-10-20T18:29:56.986Z,97530.63
2023-10-20T18:32:24.460Z,97526.63
2023-10-20T18:34:52.190Z,97515.97
2023-10-20T18:37:19.733Z,97510.66
2023-10-20T18:39:47.738Z,97531.84
2023-10-20T18:42:19.477Z,97538.03
2023-10-20T18:44:47.373Z,97541.50
2023-10-20T18:47:15.179Z,97542.91
2023-10-20T18:49:46.021Z,97557.91
2023-10-20T18:52:14.220Z,97554.84
2023-10-20T18:54:42.597Z,97559.34
2023-10-20T18:57:11.452Z,97556.72
2023-10-20T18:59:44.965Z,97554.19
2023-10-20T19:02:12.471Z,97541.22
2023-10-20T19:04:40.800Z,97542.72
2023-10-20T19:07:08.238Z,97538.06
2023-10-20T19:09:45.312Z,97540.44
2023-10-20T19:12:13.002Z,97545.56
2023-10-20T19:14:42.829Z,97555.47
2023-10-20T19:17:10.493Z,97554.41
2023-10-20T19:19:39.668Z,97570.50
2023-10-20T19:22:08.417Z,97582.59
2023-10-20T19:24:36.276Z,97579.56
2023-10-20T19:27:04.588Z,97572.06
2023-10-20T19:29:32.600Z,97569.75
2023-10-20T19:32:01.651Z,97565.16
2023-10-20T19:34:29.569Z,97561.56
2023-10-20T19:36:57.256Z,97548.06
2023-10-20T19:39:25.151Z,97538.75
2023-10-20T19:41:52.650Z,97506.28
2023-10-20T19:44:20.671Z,97502.75
2023-10-20T19:46:52.329Z,97496.91
2023-10-20T19:49:21.655Z,97502.63
2023-10-20T19:51:49.077Z,97494.81
2023-10-20T19:54:16.874Z,97503.84
2023-10-20T19:56:44.395Z,97492.94
2023-10-20T19:59:12.342Z,97488.97
2023-10-20T20:01:39.872Z,97494.97
2023-10-20T20:04:07.973Z,97506.75
2023-10-20T20:06:37.019Z,97514.88
2023-10-20T20:09:05.157Z,97521.38
2023-10-20T20:11:32.768Z,97518.63
2023-10-20T20:14:04.887Z,97509.97
2023-10-20T20:16:32.549Z,97511.09
2023-10-20T20:19:00.492Z,97508.56
2023-10-20T20:21:28.012Z,97506.81
2023-10-20T20:23:57.423Z,97505.53
2023-10-20T20:26:24.854Z,97512.94
2023-10-20T20:28:52.750Z,97524.66
2023-10-20T20:31:20.237Z,97517.41
2023-10-20T20:33:53.030Z,97521.38
2023-10-20T20:36:20.597Z,97519.72
2023-10-20T20:38:48.497Z,97535.00
2023-10-20T20:41:17.390Z,97542.19
2023-10-20T20:43:45.419Z,97556.38
2023-10-20T20:46:12.983Z,97569.34
2023-10-20T20:48:40.962Z,97559.47
2023-10-20T20:51:09.973Z,97568.09
2023-10-20T20:53:37.879Z,97576.03
2023-10-20T20:56:05.896Z,97573.94
2023-10-20T20:58:39.155Z,97578.28
2023-10-20T21:01:10.247Z,97592.63
2023-10-20T21:03:40.086Z,97591.44
2023-10-20T21:06:10.077Z,97592.56
2023-10-20T21:08:38.076Z,97607.16
2023-10-20T21:11:07.240Z,97596.44
2023-10-20T21:13:38.004Z,97588.09
2023-10-20T21:16:06.454Z,97584.63
2023-10-20T21:18:35.456Z,97593.31
2023-10-20T21:21:08.494Z,97594.91
2023-10-20T21:23:36.576Z,97597.66
2023-10-20T21:26:04.427Z,97612.94
2023-10-20T21:28:32.513Z,97615.59
2023-10-20T21:31:03.872Z,97617.78
2023-10-20T21:33:34.935Z,97620.44
2023-10-20T21:36:05.702Z,97628.78
2023-10-20T21:38:33.659Z,97632.31
2023-10-20T21:41:01.225Z,97629.41
2023-10-20T21:43:29.223Z,97634.28
2023-10-20T21:45:57.457Z,97626.22
2023-10-20T21:48:27.741Z,97614.53
2023-10-20T21:50:56.176Z,97606.72
2023-10-20T21:53:24.276Z,97609.66
2023-10-20T21:55:59.936Z,97602.03
2023-10-20T21:58:27.920Z,97612.00
2023-10-20T22:00:55.478Z,97613.09
2023-10-20T22:03:24.050Z,97635.97
2023-10-20T22:05:53.064Z,97635.50
2023-10-20T22:08:21.012Z,97645.31
2023-10-20T22:10:48.494Z,97652.13
2023-10-20T22:13:16.542Z,97656.69
2023-10-20T22:15:43.921Z,97669.91
2023-10-20T22:18:11.824Z,97675.53
2023-10-20T22:20:40.034Z,97682.59
2023-10-20T22:23:12.993Z,97708.19
2023-10-20T22:25:40.513Z,97721.66
2023-10-20T22:28:08.328Z,97731.69
2023-10-20T22:30:35.690Z,97737.22
2023-10-20T22:33:04.037Z,97736.41
2023-10-20T22:35:31.609Z,97736.94
2023-10-20T22:37:59.541Z,97755.28
2023-10-20T22:40:28.589Z,97760.94
2023-10-20T22:42:56.355Z,97763.13
2023-10-20T22:45:23.626Z,97763.50
2023-10-20T22:47:51.554Z,97778.94
2023-10-20T22:50:19.441Z,97779.09
2023-10-20T22:52:47.511Z,97795.41
2023-10-20T22:55:15.111Z,97797.16
2023-10-20T22:57:47.836Z,97795.91
2023-10-20T23:00:16.770Z,97798.41
2023-10-20T23:02:44.649Z,97805.94
2023-10-20T23:05:12.254Z,97823.72
2023-10-20T23:07:40.260Z,97816.66
2023-10-20T23:10:08.130Z,97820.53
2023-10-20T23:12:36.101Z,97806.88
2023-10-20T23:15:05.786Z,97809.72
2023-10-20T23:17:33.707Z,97806.88
2023-10-20T23:20:01.158Z,97804.38
2023-10-20T23:22:29.063Z,97815.28
2023-10-20T23:24:56.441Z,97806.88
2023-10-20T23:27:24.204Z,97813.53
2023-10-20T23:29:51.655Z,97811.25
2023-10-20T23:32:20.776Z,97816.41
2023-10-20T23:34:48.129Z,97813.78
2023-10-20T23:37:15.870Z,97815.59
2023-10-20T23:39:43.308Z,97824.13
2023-10-20T23:42:11.246Z,97840.97
2023-10-20T23:44:38.743Z,97846.94
2023-10-20T23:47:06.740Z,97863.66
2023-10-20T23:49:35.752Z,97860.69
2023-10-20T23:52:03.908Z,97866.59
2023-10-20T23:54:31.297Z,97872.59
2023-10-20T23:56:59.108Z,97866.06
2023-10-20T23:59:26.605Z,97864.81
